Flight Track Log - Related Links

Times and Time Zones

All times are in EDT time to prevent confusion due to time zone crossing. See the N508QS flight status page for this flight to view local times or setup timezone preferences in your user account.

Time Position Orientation Groundspeed Altitude Reporting Facility
EDT Latitude Longitude Course Direction KTS MPH feet Rate Location/Type
Sun 01:57:00 PM 8.7182 -60.6571 332° Northwest  Level FlightAware Approximate
Sun 01:58:00 PM 8.8270 -60.7155 332° Northwest  Level FlightAware Approximate
Sun 01:59:00 PM 8.9358 -60.7739 332° Northwest  Level FlightAware Approximate
Sun 02:00:00 PM 9.0446 -60.8324 332° Northwest  Level FlightAware Approximate
Sun 02:01:00 PM 9.1534 -60.8909 332° Northwest  Level FlightAware Approximate
Sun 02:02:00 PM 9.2622 -60.9495 332° Northwest  Level FlightAware Approximate
Sun 02:03:00 PM 9.3709 -61.0081 332° Northwest  Level FlightAware Approximate
Sun 02:04:00 PM 9.4797 -61.0667 332° Northwest  Level FlightAware Approximate
Sun 02:05:00 PM 9.5884 -61.1254 332° Northwest  Level FlightAware Approximate
Sun 02:06:00 PM 9.6971 -61.1841 332° Northwest  Level FlightAware Approximate
Sun 02:07:00 PM 9.8059 -61.2428 332° Northwest  Level FlightAware Approximate
Sun 02:08:00 PM 9.9144 -61.3018 332° Northwest  Level FlightAware Approximate
Sun 02:09:00 PM 10.0229 -61.3610 332° Northwest  Level FlightAware Approximate
Sun 02:10:00 PM 10.1314 -61.4202 332° Northwest  Level FlightAware Approximate
Sun 02:11:00 PM 10.2399 -61.4795 332° Northwest  Level FlightAware Approximate
Sun 02:12:00 PM 10.3484 -61.5387 332° Northwest  Level FlightAware Approximate
Sun 02:13:00 PM 10.4568 -61.5981 332° Northwest  Level FlightAware Approximate
Sun 02:14:00 PM 10.5653 -61.6575 332° Northwest  Level FlightAware Approximate
Sun 02:15:00 PM 10.6737 -61.7169 332° Northwest  Level FlightAware Approximate
Sun 02:16:00 PM 10.7822 -61.7764 332° Northwest  Level FlightAware Approximate
Sun 02:17:00 PM 10.8906 -61.8359 332° Northwest  Level FlightAware Approximate
Sun 02:18:00 PM 10.9990 -61.8954 332° Northwest  Level FlightAware Approximate
Sun 02:19:00 PM 11.1074 -61.9550 332° Northwest  Level FlightAware Approximate
Sun 02:20:00 PM 11.2158 -62.0147 332° Northwest  Level FlightAware Approximate
Sun 02:21:00 PM 11.3241 -62.0744 332° Northwest  Level FlightAware Approximate
Sun 02:22:00 PM 11.4325 -62.1341 332° Northwest  Level FlightAware Approximate
Sun 02:23:00 PM 11.5408 -62.1939 332° Northwest  Level FlightAware Approximate
Sun 02:24:00 PM 11.6492 -62.2537 332° Northwest  Level FlightAware Approximate
Sun 02:25:00 PM 11.7575 -62.3136 332° Northwest  Level FlightAware Approximate
Sun 02:26:00 PM 11.8658 -62.3735 332° Northwest  Level FlightAware Approximate
Sun 02:27:00 PM 11.9741 -62.4334 332° Northwest  Level FlightAware Approximate
Sun 02:28:00 PM 12.0824 -62.4935 332° Northwest  Level FlightAware Approximate
Sun 02:29:00 PM 12.1906 -62.5535 332° Northwest  Level FlightAware Approximate
Sun 02:30:00 PM 12.2989 -62.6136 332° Northwest  Level FlightAware Approximate
Sun 02:31:00 PM 12.4072 -62.6738 332° Northwest  Level FlightAware Approximate
Sun 02:32:00 PM 12.5154 -62.7340 331° Northwest  Level FlightAware Approximate
Sun 02:33:00 PM 12.6236 -62.7943 331° Northwest  Level FlightAware Approximate
Sun 02:34:00 PM 12.7318 -62.8546 331° Northwest  Level FlightAware Approximate
Sun 02:35:00 PM 12.8400 -62.9149 331° Northwest  Level FlightAware Approximate
Sun 02:36:00 PM 12.9482 -62.9753 331° Northwest  Level FlightAware Approximate
Sun 02:37:00 PM 13.0563 -63.0358 331° Northwest  Level FlightAware Approximate
Sun 02:38:00 PM 13.1645 -63.0963 331° Northwest  Level FlightAware Approximate
Sun 02:39:00 PM 13.2726 -63.1569 331° Northwest  Level FlightAware Approximate
Sun 02:40:00 PM 13.3808 -63.2175 331° Northwest  Level FlightAware Approximate
Sun 02:41:00 PM 13.4889 -63.2782 331° Northwest  Level FlightAware Approximate
Sun 02:42:00 PM 13.5970 -63.3390 331° Northwest  Level FlightAware Approximate
Sun 02:43:00 PM 13.7050 -63.3997 331° Northwest  Level FlightAware Approximate
Sun 02:44:00 PM 13.8131 -63.4606 331° Northwest  Level FlightAware Approximate
Sun 02:44:05 PM 14.8667 -64.0500 331° Northwest 450 518 45,000  Level San Juan Center
Sun 02:45:00 PM 13.9212 -63.5215 331° Northwest  Level FlightAware Approximate
Sun 02:45:06 PM 14.9833 -64.1167 331° Northwest 460 529 45,000  Level San Juan Center
Sun 02:46:00 PM 14.0292 -63.5825 331° Northwest  Level FlightAware Approximate
Sun 02:46:06 PM 15.0833 -64.2000 321° Northwest 450 518 45,000  Level San Juan Center
Sun 02:47:00 PM 14.1372 -63.6435 331° Northwest  Level FlightAware Approximate
Sun 02:47:05 PM 15.1667 -64.2833 316° Northwest 450 518 45,000  Level San Juan Center
Sun 02:48:00 PM 14.2452 -63.7046 331° Northwest  Level FlightAware Approximate
Sun 02:48:06 PM 15.2667 -64.3667 321° Northwest 460 529 45,000  Level San Juan Center
Sun 02:49:00 PM 14.3532 -63.7657 331° Northwest  Level FlightAware Approximate
Sun 02:49:06 PM 15.3667 -64.4500 321° Northwest 460 529 45,000  Level San Juan Center
Sun 02:50:06 PM 15.4667 -64.5333 321° Northwest 450 518 45,000  Level San Juan Center
Sun 02:51:06 PM 15.5667 -64.6167 321° Northwest 450 518 45,000  Level San Juan Center
Sun 02:52:06 PM 15.6667 -64.7000 321° Northwest 450 518 45,000  Level San Juan Center
Sun 02:53:07 PM 15.7667 -64.7833 321° Northwest 450 518 45,000  Level San Juan Center
Sun 02:54:07 PM 15.8667 -64.8667 321° Northwest 450 518 45,000  Level San Juan Center
Sun 02:55:06 PM 15.9667 -64.9500 321° Northwest 450 518 45,000  Level San Juan Center
Sun 02:56:07 PM 16.0667 -65.0333 321° Northwest 450 518 45,000  Level San Juan Center
Sun 02:57:07 PM 16.1500 -65.1167 316° Northwest 450 518 45,000  Level San Juan Center
Sun 02:58:07 PM 16.2500 -65.2000 321° Northwest 450 518 45,000  Level San Juan Center
Sun 02:59:07 PM 16.3500 -65.2667 327° Northwest 450 518 45,000  Level San Juan Center
Sun 03:00:07 PM 16.4500 -65.3500 321° Northwest 450 518 45,000  Level San Juan Center
Sun 03:01:07 PM 16.5500 -65.4333 321° Northwest 450 518 45,000  Level San Juan Center
Sun 03:02:07 PM 16.6500 -65.5167 321° Northwest 450 518 45,000  Level San Juan Center
Sun 03:03:08 PM 16.7500 -65.6000 321° Northwest 450 518 45,000  Level San Juan Center
Sun 03:04:08 PM 16.8333 -65.6833 316° Northwest 460 529 45,000  Level San Juan Center
Sun 03:05:07 PM 16.9333 -65.7667 321° Northwest 450 518 45,000  Level San Juan Center
Sun 03:06:08 PM 17.0333 -65.8500 321° Northwest 450 518 45,000  Level San Juan Center
Sun 03:07:08 PM 17.1333 -65.9333 321° Northwest 450 518 45,000  Level San Juan Center
Sun 03:08:08 PM 17.2333 -66.0167 321° Northwest 460 529 45,000  Level San Juan Center
Sun 03:09:08 PM 17.3333 -66.1000 322° Northwest 450 518 45,000  Level San Juan Center
Sun 03:10:08 PM 17.4333 -66.1833 322° Northwest 450 518 45,000  Level San Juan Center
Sun 03:11:09 PM 17.5333 -66.2667 322° Northwest 460 529 45,000  Level San Juan Center
Sun 03:12:08 PM 17.6333 -66.3500 322° Northwest 460 529 45,000  Level San Juan Center
Sun 03:13:09 PM 17.7333 -66.4500 316° Northwest 460 529 45,000  Level San Juan Center
Sun 03:14:09 PM 17.8333 -66.5333 322° Northwest 460 529 45,000  Level San Juan Center
Sun 03:15:09 PM 17.9333 -66.6167 322° Northwest 450 518 45,000  Level San Juan Center
Sun 03:16:09 PM 18.0167 -66.7000 316° Northwest 460 529 45,000  Level San Juan Center
Sun 03:17:09 PM 18.1333 -66.8000 321° Northwest 470 541 45,000  Level San Juan Center
Sun 03:18:09 PM 18.2167 -66.8667 323° Northwest 450 518 45,000  Level San Juan Center
Sun 03:19:09 PM 18.3167 -66.9500 322° Northwest 450 518 45,000  Level San Juan Center
Sun 03:20:09 PM 18.4167 -67.0333 322° Northwest 460 529 45,000  Level San Juan Center
Sun 03:21:10 PM 18.5167 -67.1333 317° Northwest 460 529 45,000  Level San Juan Center
Sun 03:22:10 PM 18.6000 -67.2333 311° West 460 529 45,000  Level San Juan Center
Sun 03:23:10 PM 18.6667 -67.3500 301° West 460 529 45,000  Level San Juan Center
Sun 03:24:10 PM 18.7500 -67.4500 311° West 460 529 45,000  Level San Juan Center
Sun 03:25:10 PM 18.8333 -67.5500 311° West 460 529 45,000  Level San Juan Center
Sun 03:26:10 PM 18.9167 -67.6667 307° West 460 529 45,000  Level San Juan Center
Sun 03:27:10 PM 18.9833 -67.7667 305° West 450 518 45,000  Level San Juan Center
Sun 03:28:11 PM 19.0667 -67.8667 311° West 460 529 45,000  Level San Juan Center
Sun 03:29:11 PM 19.1500 -67.9833 307° West 460 529 45,000  Level San Juan Center
Sun 03:30:11 PM 19.2333 -68.0833 311° West 460 529 45,000  Level San Juan Center
Sun 03:31:11 PM 19.3000 -68.1833 305° West 460 529 45,000  Level San Juan Center
Sun 03:33:16 PM 19.4822 -68.4208 309° West 482 555 45,000  Level Miami Center
Sun 03:34:16 PM 19.5586 -68.5283 307° West 468 539 45,000  Level Miami Center
Sun 03:35:16 PM 19.6253 -68.6472 301° West 463 533 45,000  Level Miami Center
Sun 03:36:16 PM 19.6917 -68.7619 302° West 458 527 45,000  Level Miami Center
Sun 03:37:16 PM 19.7581 -68.8789 301° West 458 527 45,000  Level Miami Center
Sun 03:38:16 PM 19.8264 -68.9961 302° West 464 534 45,000  Level Miami Center
Sun 03:39:16 PM 19.8903 -69.1136 300° West 464 534 45,000  Level Miami Center
Sun 03:40:16 PM 19.9564 -69.2308 301° West 464 534 45,000  Level Miami Center
Sun 03:41:16 PM 20.0225 -69.3483 301° West 469 540 45,000  Level Miami Center
Sun 03:42:16 PM 20.0886 -69.4661 301° West 469 540 45,000  Level Miami Center
Sun 03:43:16 PM 20.1544 -69.5817 301° West 462 532 45,000  Level Miami Center
Sun 03:44:16 PM 20.2200 -69.6972 301° West 462 532 45,000  Level Miami Center
Sun 03:45:16 PM 20.2900 -69.8150 302° West 462 532 45,000  Level Miami Center
Sun 03:46:16 PM 20.3539 -69.9356 299° West 462 532 45,000  Level Miami Center
Sun 03:47:16 PM 20.4192 -70.0514 301° West 462 532 45,000  Level Miami Center
Sun 03:48:16 PM 20.4828 -70.1700 300° West 467 537 45,000  Level Miami Center
Sun 03:49:16 PM 20.5503 -70.2861 302° West 467 537 45,000  Level Miami Center
Sun 03:50:16 PM 20.6156 -70.4025 301° West 462 532 45,000  Level Miami Center
Sun 03:51:16 PM 20.6828 -70.5189 302° West 462 532 45,000  Level Miami Center
Sun 03:52:16 PM 20.7461 -70.6378 300° West 462 532 45,000  Level Miami Center
Sun 03:53:16 PM 20.8114 -70.7567 300° West 462 532 45,000  Level Miami Center
Sun 03:54:16 PM 20.8742 -70.8758 299° West 462 532 45,000  Level Miami Center
Sun 03:55:16 PM 20.9325 -70.9778 302° West 462 532 45,000  Level Miami Center
Sun 03:56:16 PM 20.9975 -71.0969 300° West 462 532 45,000  Level Miami Center
Sun 03:57:16 PM 21.0581 -71.2144 299° West 457 526 45,000  Level Miami Center
Sun 03:58:16 PM 21.1250 -71.3339 301° West 457 526 45,000  Level Miami Center
Sun 03:59:16 PM 21.1917 -71.4556 300° West 457 526 45,000  Level Miami Center
Sun 04:00:16 PM 21.2564 -71.5708 301° West 457 526 45,000  Level Miami Center
Sun 04:01:16 PM 21.3208 -71.6886 300° West 457 526 45,000  Level Miami Center
Sun 04:02:16 PM 21.3875 -71.8086 301° West 457 526 45,000  Level Miami Center
Sun 04:03:16 PM 21.4539 -71.9286 301° West 457 526 45,000  Level Miami Center
Sun 04:04:16 PM 21.5203 -72.0489 301° West 462 532 45,000  Level Miami Center
Sun 04:05:16 PM 21.5825 -72.1669 300° West 462 532 45,000  Level Miami Center
Sun 04:06:16 PM 21.6486 -72.2875 301° West 462 532 45,000  Level Miami Center
Sun 04:07:16 PM 21.7125 -72.4058 300° West 462 532 45,000  Level Miami Center
Sun 04:08:16 PM 21.7789 -72.5289 300° West 462 532 45,000  Level Miami Center
Sun 04:09:16 PM 21.8406 -72.6475 299° West 462 532 45,000  Level Miami Center
Sun 04:10:16 PM 21.9086 -72.7706 301° West 467 537 45,000  Level Miami Center
Sun 04:11:16 PM 21.9722 -72.8894 300° West 467 537 45,000  Level Miami Center
Sun 04:12:16 PM 22.0403 -73.0172 300° West 467 537 45,000  Level Miami Center
Sun 04:13:16 PM 22.1039 -73.1364 300° West 462 532 45,000  Level Miami Center
Sun 04:15:16 PM 22.2328 -73.3772 300° West 462 532 45,000  Level Miami Center
Sun 04:16:16 PM 22.2853 -73.4858 298° West 457 526 45,000  Level Miami Center
Sun 04:17:16 PM 22.3483 -73.6053 300° West 457 526 45,000  Level Miami Center
Sun 04:18:16 PM 22.4114 -73.7250 300° West 457 526 45,000  Level Miami Center
Sun 04:19:16 PM 22.4744 -73.8450 300° West 457 526 45,000  Level Miami Center
Sun 04:20:16 PM 22.5394 -73.9669 300° West 457 526 45,000  Level Miami Center
Sun 04:21:16 PM 22.6025 -74.0894 299° West 457 526 45,000  Level Miami Center
Sun 04:22:16 PM 22.6672 -74.2094 300° West 457 526 45,000  Level Miami Center
Sun 04:23:16 PM 22.7300 -74.3344 299° West 462 532 45,000  Level Miami Center
Sun 04:24:16 PM 22.7925 -74.4525 300° West 456 525 45,000  Level Miami Center
Sun 04:25:16 PM 22.8569 -74.5775 299° West 456 525 45,000  Level Miami Center
Sun 04:26:16 PM 22.9217 -74.7006 300° West 456 525 45,000  Level Miami Center
Sun 04:27:16 PM 22.9858 -74.8233 300° West 461 531 45,000  Level Miami Center
Sun 04:28:16 PM 23.0481 -74.9467 299° West 461 531 45,000  Level Miami Center
Sun 04:29:16 PM 23.1122 -75.0678 300° West 461 531 45,000  Level Miami Center
Sun 04:30:16 PM 23.1744 -75.1911 299° West 461 531 45,000  Level Miami Center
Sun 04:31:16 PM 23.2361 -75.3125 299° West 461 531 45,000 -100 Level Miami Center
Sun 04:32:16 PM 23.3003 -75.4383 299° West 461 531 44,800 -450 Descending Miami Center
Sun 04:33:16 PM 23.3619 -75.5575 299° West 461 531 44,100 -750 Descending Miami Center
Sun 04:34:16 PM 23.4319 -75.6950 299° West 456 525 43,300 -550 Descending Miami Center
Sun 04:35:16 PM 23.5039 -75.8122 304° West 461 531 43,000 -150 Descending Miami Center
Sun 04:36:16 PM 23.5633 -75.9544 295° West 483 556 43,000  Level Miami Center
Sun 04:37:16 PM 23.6247 -76.0742 299° West 476 548 43,000  Level Miami Center
Sun 04:38:16 PM 23.6858 -76.1964 299° West 468 539 43,000  Level Miami Center
Sun 04:39:16 PM 23.7469 -76.3208 298° West 468 539 43,000  Level Miami Center
Sun 04:40:16 PM 23.8058 -76.4433 298° West 463 533 43,000  Level Miami Center
Sun 04:41:16 PM 23.8689 -76.5636 300° West 458 527 43,000  Level Miami Center
Sun 04:42:16 PM 23.9297 -76.6861 299° West 453 521 43,000  Level Miami Center
Sun 04:43:16 PM 23.9883 -76.8089 298° West 458 527 43,000  Level Miami Center
Sun 04:44:16 PM 24.0406 -76.9133 299° West 453 521 43,000  Level Miami Center
Sun 04:45:16 PM 24.1011 -77.0364 298° West 453 521 43,000  Level Miami Center
Sun 04:46:16 PM 24.1636 -77.1572 300° West 453 521 43,000  Level Miami Center
Sun 04:47:16 PM 24.2217 -77.2828 297° West 453 521 43,000  Level Miami Center
Sun 04:48:16 PM 24.2819 -77.4083 298° West 453 521 43,000  Level Miami Center
Sun 04:49:16 PM 24.3400 -77.5294 298° West 453 521 43,000  Level Miami Center
Sun 04:50:16 PM 24.4019 -77.6553 298° West 453 521 43,000  Level Miami Center
Sun 04:51:16 PM 24.4597 -77.7789 297° West 458 527 43,000  Level Miami Center
Sun 04:52:16 PM 24.5217 -77.9072 298° West 458 527 43,000  Level Miami Center
Sun 04:53:16 PM 24.5836 -78.0289 299° West 458 527 43,000 -700 Level Miami Center
Sun 04:54:16 PM 24.6411 -78.1528 297° West 458 527 41,600 -1,500 Descending Miami Center
Sun 04:55:16 PM 24.7025 -78.2747 299° West 458 527 40,000 -1,550 Descending Miami Center
Sun 04:56:16 PM 24.7578 -78.3944 297° West 453 521 38,500 -1,600 Descending Miami Center
Sun 04:57:16 PM 24.8172 -78.5164 298° West 448 516 36,800 -1,750 Descending Miami Center
Sun 04:58:16 PM 24.8783 -78.6411 298° West 453 521 35,000 -1,900 Descending Miami Center
Sun 04:59:16 PM 24.9375 -78.7703 297° West 459 528 33,000 -2,700 Descending Miami Center
Sun 05:00:16 PM 25.0006 -78.8972 299° West 465 535 29,600 -3,500 Descending Miami Center
Sun 05:01:16 PM 25.0717 -79.0383 299° West 471 542 26,000 -3,300 Descending Miami Center
Sun 05:02:16 PM 25.1283 -79.1633 297° West 471 542 23,000 -2,650 Descending Miami Center
Sun 05:03:16 PM 25.1747 -79.2606 298° West 465 535 20,700 -2,750 Descending Miami Center
Sun 05:04:16 PM 25.2372 -79.3975 297° West 445 512 17,500 -2,813 Descending Miami Center
Sun 05:04:52 PM 25.2633 -79.4600 295° West 377 434 16,200 -2,300 Descending Miami Center
Sun 05:05:16 PM 25.2856 -79.4994 302° West 406 467 15,200 -2,189 Descending Miami Center
Sun 05:06:06 PM 25.3197 -79.5783 296° West 343 395 13,500 -2,200 Descending Miami Center
Sun 05:06:16 PM 25.3297 -79.5925 308° West 369 425 13,000 -2,100 Descending Miami Center
Sun 05:07:06 PM 25.3597 -79.6667 294° West 313 360 11,400 -2,000 Descending Miami Center
Sun 05:07:16 PM 25.3700 -79.6783 314° West 333 383 11,000 -1,418 Descending Miami Center
Sun 05:08:01 PM 25.4214 -79.7186 325° Northwest 297 342 10,100 -1,000 Descending Miami Center
Sun 05:08:16 PM 25.4422 -79.7283 337° Northwest 301 346 10,000 -320 Descending Miami Center
Sun 05:09:16 PM 25.5122 -79.7783 327° Northwest 295 339 9,700 -1,009 Descending Miami Center
Sun 05:10:03 PM 25.5678 -79.8189 327° Northwest 296 341 8,200 -1,900 Descending Miami Center
Sun 05:10:16 PM 25.5822 -79.8261 336° Northwest 295 339 7,800 -1,791 Descending Miami Center
Sun 05:11:10 PM 25.6397 -79.8714 325° Northwest 286 329 6,200 -1,800 Descending Miami Center
Sun 05:11:16 PM 25.6481 -79.8739 345° North 295 339 6,000 -1,672 Descending Miami Center
Sun 05:12:11 PM 25.7100 -79.9192 327° Northwest 270 311 4,500 -1,700 Descending Miami Center
Sun 05:12:16 PM 25.7161 -79.9169 18° North 290 334 4,300 -492 Descending Miami Center
Sun 05:13:12 PM 25.7717 -79.9622 324° Northwest 247 284 4,000 -300 Descending Miami Center
Sun 05:13:16 PM 25.7758 -79.9600 26° Northeast 271 312 4,000 -97 Level Miami Center
Sun 05:14:14 PM 25.8017 -80.0208 295° West 227 261 3,900 -200 Descending Miami Center
Sun 05:14:16 PM 25.8058 -80.0208 360° North 234 269 3,800 -1,469 Descending Miami Center
Sun 05:15:03 PM 25.8089 -80.0786 273° West 226 260 2,700 -947 Descending Miami Center
Sun 05:16:10 PM 25.8072 -80.1478 268° West 180 207 2,000 -493 Descending Miami Center
Sun 05:17:17 PM 25.8061 -80.2056 269° West 155 178 1,600 -656 Descending Miami Center
Sun 05:18:18 PM 25.8028 -80.2517 265° West 154 177 600 -984 Descending Miami Center
Sun 05:20:00 PM 25.7833 -80.2833 90° East  Level FlightAware Approximate
Sun 05:27:00 PM 25.7954 -80.2901 90° East  Level Estimated

Login

Don't have an account? Register now (free) for customized features, flight alerts, and more!